Time;durP1;ratioP1;P1;durP2;ratioP2;P2;SDS_P1;SDS_P2;PMS_P1;PMS_P2;Temp;Humidity;BMP_temperature;BMP_pressure;BME280_temperature;BME280_humidity;BME280_pressure;Samples;Min_cycle;Max_cycle;Signal;HPM_P1;HPM_P2
2023/07/21 00:01:28;;;;;;;1.83;1.20;;;16.10;99.90;;;15.55;100.00;101180.28;3996030;29;20459;-73
2023/07/21 00:03:30;;;;;;;2.58;1.35;;;16.10;99.90;;;15.47;100.00;101178.53;3995995;29;20049;-74
2023/07/21 00:05:31;;;;;;;4.43;1.83;;;16.10;99.90;;;15.44;100.00;101179.63;3995958;29;20062;-73
2023/07/21 00:07:32;;;;;;;2.88;1.55;;;16.00;99.90;;;15.43;100.00;101178.00;3994110;29;20394;-74
2023/07/21 00:09:33;;;;;;;2.92;1.90;;;16.00;99.90;;;15.40;100.00;101183.69;3965333;29;20035;-73
2023/07/21 00:11:34;;;;;;;4.63;1.60;;;16.00;99.90;;;15.35;100.00;101178.03;3995487;29;20076;-73
2023/07/21 00:13:36;;;;;;;1.70;1.33;;;15.90;99.90;;;15.33;100.00;101184.53;3995163;29;20471;-73
2023/07/21 00:15:37;;;;;;;2.88;1.65;;;15.90;99.90;;;15.30;100.00;101176.91;3990426;29;20031;-73
2023/07/21 00:17:38;;;;;;;4.22;1.63;;;15.90;99.90;;;15.24;100.00;101177.63;3972302;29;20032;-73
2023/07/21 00:19:38;;;;;;;2.10;1.60;;;15.80;99.90;;;15.30;100.00;101185.72;3978016;29;20026;-73
2023/07/21 00:21:39;;;;;;;2.15;1.65;;;15.80;99.90;;;15.31;100.00;101183.91;3995999;29;20030;-73
2023/07/21 00:23:40;;;;;;;4.88;1.90;;;15.80;99.90;;;15.29;100.00;101178.75;3995878;29;20035;-73
2023/07/21 00:25:45;;;;;;;2.58;1.50;;;15.80;99.90;;;15.25;100.00;101181.94;3990943;29;20029;-73
2023/07/21 00:27:46;;;;;;;2.20;1.50;;;15.80;99.90;;;15.22;100.00;101175.16;3982624;29;20027;-73
2023/07/21 00:29:49;;;;;;;3.33;1.60;;;15.80;99.90;;;15.19;100.00;101179.97;3989192;29;20084;-73
2023/07/21 00:31:50;;;;;;;4.03;1.73;;;15.80;99.90;;;15.20;100.00;101176.34;3980790;29;20038;-73
2023/07/21 00:33:51;;;;;;;3.20;1.55;;;15.80;99.90;;;15.20;100.00;101179.78;3988175;29;20034;-73
2023/07/21 00:35:52;;;;;;;3.00;2.05;;;15.80;99.90;;;15.15;100.00;101176.84;3988162;29;20092;-73
2023/07/21 00:37:53;;;;;;;2.60;1.55;;;15.70;99.90;;;15.16;100.00;101167.88;3977539;29;20485;-73
2023/07/21 00:39:54;;;;;;;2.15;1.50;;;15.70;99.90;;;15.15;100.00;101168.88;3991609;29;20426;-73
2023/07/21 00:41:55;;;;;;;2.65;1.75;;;15.70;99.90;;;15.15;100.00;101168.88;3987953;29;20030;-73
2023/07/21 00:43:56;;;;;;;1.88;1.60;;;15.70;99.90;;;15.14;100.00;101163.75;3992587;29;20106;-73
2023/07/21 00:45:57;;;;;;;3.65;1.70;;;15.70;99.90;;;15.11;100.00;101162.28;3982454;29;20552;-73
2023/07/21 00:48:00;;;;;;;3.58;2.13;;;15.70;99.90;;;15.10;100.00;101168.56;3974130;29;20040;-74
2023/07/21 00:50:01;;;;;;;3.45;1.70;;;15.70;99.90;;;15.11;100.00;101162.28;3975299;29;20122;-73
2023/07/21 00:52:02;;;;;;;3.78;1.88;;;15.70;99.90;;;15.12;100.00;101169.22;3982515;29;20039;-73
2023/07/21 00:54:03;;;;;;;3.22;1.80;;;15.70;99.90;;;15.07;100.00;101154.81;3981944;29;20034;-73
2023/07/21 00:56:05;;;;;;;2.50;1.50;;;15.70;99.90;;;15.11;100.00;101162.28;3986153;29;20034;-73
2023/07/21 00:58:09;;;;;;;3.13;1.40;;;15.70;99.90;;;15.10;100.00;101165.91;3972816;29;20035;-73
2023/07/21 01:00:12;;;;;;;4.72;1.70;;;15.70;99.90;;;15.06;100.00;101158.47;3967715;29;20114;-73
2023/07/21 01:02:13;;;;;;;3.33;1.90;;;15.70;99.90;;;15.09;100.00;101161.59;3967694;29;20583;-73
2023/07/21 01:04:14;;;;;;;3.95;1.85;;;15.60;99.90;;;15.06;100.00;101148.66;3990725;29;20035;-73
2023/07/21 01:06:15;;;;;;;19.15;2.70;;;15.70;99.90;;;15.06;100.00;101158.47;3971878;29;20040;-73
2023/07/21 01:08:17;;;;;;;3.40;1.83;;;15.60;99.90;;;15.05;100.00;101160.31;3988814;29;20514;-73
2023/07/21 01:10:20;;;;;;;2.63;1.70;;;15.60;99.90;;;15.07;100.00;101168.09;3984692;29;20034;-73
2023/07/21 01:12:20;;;;;;;2.90;2.10;;;15.60;99.90;;;15.08;100.00;101167.94;3996990;29;20160;-73
2023/07/21 01:14:21;;;;;;;2.47;1.65;;;15.60;99.90;;;15.07;100.00;101166.28;3988413;29;20505;-73
2023/07/21 01:16:23;;;;;;;5.00;2.30;;;15.60;99.90;;;15.09;100.00;101158.09;3967823;29;20059;-73
2023/07/21 01:18:25;;;;;;;4.20;2.38;;;15.60;99.90;;;15.10;100.00;101160.59;3967293;29;20066;-73
2023/07/21 01:20:27;;;;;;;4.22;2.00;;;15.60;99.90;;;15.05;100.00;101149.69;3967621;29;20039;-73
2023/07/21 01:22:42;;;;;;;4.32;2.35;;;15.60;99.90;;;15.03;100.00;101159.63;3973103;29;20066;-73
2023/07/21 01:24:51;;;;;;;3.40;2.15;;;15.60;99.90;;;14.99;100.00;101155.69;3979076;29;20126;-73
2023/07/21 01:26:54;;;;;;;2.38;1.80;;;15.60;99.90;;;14.98;100.00;101147.88;3975267;29;20193;-73
2023/07/21 01:28:55;;;;;;;2.33;1.83;;;15.50;99.90;;;14.95;100.00;101149.06;3997867;29;20033;-73
2023/07/21 01:30:57;;;;;;;3.35;1.75;;;15.50;99.90;;;14.93;100.00;101148.41;3981790;29;20455;-73
2023/07/21 01:32:59;;;;;;;2.75;1.95;;;15.50;99.90;;;14.91;100.00;101139.78;3997819;29;20039;-73
2023/07/21 01:35:00;;;;;;;3.25;1.90;;;15.50;99.90;;;14.92;100.00;101146.75;3966601;29;20057;-73
2023/07/21 01:37:02;;;;;;;3.38;2.00;;;15.50;99.90;;;14.82;100.00;101130.19;3981960;29;20073;-73
2023/07/21 01:39:05;;;;;;;3.08;2.13;;;15.40;99.90;;;14.83;100.00;101137.19;3997754;29;20088;-73
2023/07/21 01:41:07;;;;;;;2.60;2.00;;;15.40;99.90;;;14.79;100.00;101139.34;3966553;29;20027;-73
2023/07/21 01:43:09;;;;;;;3.30;2.30;;;15.40;99.90;;;14.77;100.00;101143.19;3997830;29;20078;-73
2023/07/21 01:45:10;;;;;;;2.60;2.30;;;15.30;99.90;;;14.67;100.00;101129.28;3979346;29;20076;-73
2023/07/21 01:47:11;;;;;;;2.90;2.28;;;15.30;99.90;;;14.71;100.00;101143.88;3979522;29;20042;-73
2023/07/21 01:49:12;;;;;;;3.42;2.35;;;15.30;99.90;;;14.68;100.00;101144.22;3997756;29;20038;-73
2023/07/21 01:51:16;;;;;;;1.90;1.70;;;15.20;99.90;;;14.65;100.00;101144.56;3997714;29;20038;-73
2023/07/21 01:53:21;;;;;;;;;;;15.20;99.90;;;14.59;100.00;101145.25;3982044;29;20035;-73
2023/07/21 01:55:28;;;;;;;5.13;2.60;;;15.20;99.90;;;14.52;100.00;101138.97;3997316;29;19912;-73
2023/07/21 01:57:38;;;;;;;2.70;2.30;;;15.10;99.90;;;14.46;100.00;101129.84;3981925;29;20035;-73
2023/07/21 01:59:43;;;;;;;5.45;2.40;;;15.00;99.90;;;14.44;100.00;101133.69;3966297;29;20035;-73
2023/07/21 02:01:46;;;;;;;4.32;2.83;;;15.00;99.90;;;14.35;100.00;101128.41;3981886;29;20039;-73
2023/07/21 02:03:49;;;;;;;2.88;2.25;;;14.90;99.90;;;14.26;100.00;101124.09;3974127;29;20507;-73
2023/07/21 02:05:50;;;;;;;3.60;2.35;;;14.80;99.90;;;14.19;100.00;101133.72;3997649;29;20487;-73
2023/07/21 02:07:51;;;;;;;2.63;2.35;;;14.80;99.90;;;14.12;100.00;101127.47;3995166;29;20041;-73
2023/07/21 02:09:52;;;;;;;2.95;2.03;;;14.70;99.90;;;14.08;100.00;101136.75;3997372;29;20183;-73
2023/07/21 02:11:53;;;;;;;3.47;2.35;;;14.70;99.90;;;14.04;100.00;101123.97;3997245;29;20041;-73
2023/07/21 02:13:54;;;;;;;3.65;2.75;;;14.60;99.90;;;14.02;100.00;101126.81;3980887;29;20035;-73
2023/07/21 02:15:55;;;;;;;3.63;2.53;;;14.60;99.90;;;14.01;100.00;101127.78;3993450;29;20026;-73
2023/07/21 02:17:56;;;;;;;2.72;2.33;;;14.60;99.90;;;13.94;100.00;101126.84;3997254;29;20026;-73
2023/07/21 02:19:57;;;;;;;3.05;2.58;;;14.50;99.90;;;13.92;100.00;101134.09;3981267;29;20403;-73
2023/07/21 02:21:58;;;;;;;4.00;2.60;;;14.50;99.90;;;13.85;100.00;101126.03;3997102;29;20509;-73
2023/07/21 02:24:00;;;;;;;5.10;2.50;;;14.40;99.90;;;13.74;100.00;101115.72;3997149;29;20030;-73
2023/07/21 02:26:01;;;;;;;4.10;2.60;;;14.30;99.90;;;13.72;100.00;101117.75;3997035;29;20117;-73
2023/07/21 02:28:01;;;;;;;3.35;2.63;;;14.30;99.90;;;13.68;100.00;101123.53;3981061;29;20164;-73
2023/07/21 02:30:04;;;;;;;4.93;2.90;;;14.30;99.90;;;13.66;100.00;101128.16;3995682;29;20035;-73
2023/07/21 02:32:05;;;;;;;5.03;3.00;;;14.20;99.90;;;13.63;100.00;101110.78;3997113;29;20030;-73
2023/07/21 02:34:07;;;;;;;5.72;3.00;;;14.20;99.90;;;13.56;100.00;101108.97;3988348;29;20463;-73
2023/07/21 02:36:08;;;;;;;3.45;2.60;;;14.20;99.90;;;13.61;100.00;101123.38;3997042;29;20030;-73
2023/07/21 02:38:09;;;;;;;3.65;2.53;;;14.10;99.90;;;13.59;100.00;101111.28;3997103;29;20027;-73
2023/07/21 02:40:12;;;;;;;6.13;3.17;;;14.10;99.90;;;13.59;100.00;101112.09;3996884;29;20042;-73
2023/07/21 02:42:12;;;;;;;6.00;2.95;;;14.10;99.90;;;13.61;100.00;101115.44;3996993;29;20060;-73
2023/07/21 02:44:13;;;;;;;3.50;2.58;;;14.20;99.90;;;13.66;100.00;101118.41;3997004;29;20034;-73
2023/07/21 02:46:14;;;;;;;3.78;2.75;;;14.20;99.90;;;13.72;100.00;101119.56;3996959;29;20034;-73
2023/07/21 02:48:17;;;;;;;5.68;2.63;;;14.30;99.90;;;13.73;100.00;101115.91;3980866;29;20035;-73
2023/07/21 02:50:19;;;;;;;3.33;2.58;;;14.20;99.90;;;13.75;100.00;101124.53;3981085;29;20046;-73
2023/07/21 02:52:19;;;;;;;3.20;2.58;;;14.20;99.90;;;13.75;100.00;101129.81;3980533;29;20035;-73
2023/07/21 02:54:20;;;;;;;4.05;2.80;;;14.20;99.90;;;13.71;100.00;101120.53;3996913;29;20083;-73
2023/07/21 02:56:21;;;;;;;5.05;3.10;;;14.20;99.90;;;13.72;100.00;101123.03;3996736;29;20054;-73
2023/07/21 02:58:26;;;;;;;5.20;3.38;;;14.20;99.90;;;13.72;100.00;101114.25;3980482;29;20027;-73
2023/07/21 03:00:28;;;;;;;4.03;3.60;;;14.30;99.90;;;13.76;100.00;101116.41;3976615;29;20121;-73
2023/07/21 03:02:30;;;;;;;5.88;3.20;;;14.30;99.90;;;13.77;100.00;101111.91;3980751;29;20060;-73
2023/07/21 03:04:36;;;;;;;6.15;3.72;;;14.30;99.90;;;13.76;100.00;101115.59;3977906;29;20089;-73
2023/07/21 03:06:37;;;;;;;4.97;3.60;;;14.30;99.90;;;13.82;100.00;101122.88;3981063;29;20047;-73
2023/07/21 03:08:38;;;;;;;4.32;3.13;;;14.30;99.90;;;13.81;100.00;101118.56;3996856;29;20188;-73
2023/07/21 03:10:39;;;;;;;5.18;3.25;;;14.40;99.90;;;13.83;100.00;101119.19;3995613;29;20030;-73
2023/07/21 03:12:40;;;;;;;5.28;3.35;;;14.40;99.90;;;13.85;100.00;101125.19;3996803;29;20031;-73
2023/07/21 03:14:41;;;;;;;7.65;3.97;;;14.40;99.90;;;13.86;100.00;101118.88;3980451;29;20035;-73
2023/07/21 03:16:42;;;;;;;5.80;3.58;;;14.30;99.90;;;13.80;100.00;101117.72;3995837;29;20030;-73
2023/07/21 03:18:43;;;;;;;6.03;3.65;;;14.30;99.90;;;13.77;100.00;101118.06;3980106;29;20035;-73
2023/07/21 03:20:44;;;;;;;4.75;3.53;;;14.30;99.90;;;13.72;100.00;101122.22;3996361;29;20052;-73
2023/07/21 03:22:45;;;;;;;6.22;3.80;;;14.20;99.90;;;13.65;100.00;101114.09;3980260;29;20055;-73
2023/07/21 03:24:46;;;;;;;4.75;3.65;;;14.20;99.90;;;13.61;100.00;101114.59;3979672;29;20031;-73
2023/07/21 03:26:47;;;;;;;6.00;3.80;;;14.10;99.90;;;13.56;100.00;101116.94;3996349;29;20045;-73
2023/07/21 03:28:48;;;;;;;6.10;3.85;;;14.10;99.90;;;13.54;100.00;101119.72;3990672;29;20027;-73
2023/07/21 03:31:02;;;;;;;4.53;3.83;;;14.10;99.90;;;13.52;100.00;101112.94;3977111;29;20038;-73
2023/07/21 03:33:03;;;;;;;7.07;4.03;;;14.00;99.90;;;13.49;100.00;101114.09;3985873;29;20038;-73
2023/07/21 03:35:05;;;;;;;6.82;4.32;;;14.10;99.90;;;13.46;100.00;101116.25;3993563;29;20037;-73
2023/07/21 03:37:08;;;;;;;6.45;4.20;;;14.00;99.90;;;13.44;100.00;101115.59;3980477;29;20034;-73
2023/07/21 03:39:09;;;;;;;5.57;4.28;;;14.00;99.90;;;13.40;100.00;101114.25;3996358;29;20539;-73
2023/07/21 03:41:11;;;;;;;5.57;4.07;;;14.00;99.90;;;13.38;100.00;101124.22;3995896;29;20023;-73
2023/07/21 03:43:13;;;;;;;5.90;3.72;;;13.90;99.90;;;13.32;100.00;101121.22;3992721;29;20062;-73
2023/07/21 03:45:14;;;;;;;5.45;3.75;;;13.90;99.90;;;13.31;100.00;101121.38;3994402;29;20509;-73
2023/07/21 03:47:19;;;;;;;5.82;4.00;;;13.90;99.90;;;13.24;100.00;101115.06;3996182;29;20074;-73
2023/07/21 03:49:20;;;;;;;6.25;4.45;;;13.80;99.90;;;13.28;100.00;101133.16;3980595;29;20511;-73
2023/07/21 03:51:21;;;;;;;8.73;4.30;;;13.90;99.90;;;13.29;100.00;101132.13;3973902;29;20035;-73
2023/07/21 03:53:22;;;;;;;5.80;4.10;;;13.90;99.90;;;13.34;100.00;101130.81;3961019;30;20043;-73
2023/07/21 03:55:23;;;;;;;6.47;3.88;;;13.90;99.90;;;13.39;100.00;101129.34;3985265;29;20031;-73
2023/07/21 03:57:24;;;;;;;6.18;4.18;;;13.90;99.90;;;13.47;100.00;101136.47;3979910;29;20038;-73
2023/07/21 03:59:25;;;;;;;8.38;4.30;;;14.00;99.90;;;13.52;100.00;101134.16;3979751;29;20038;-73
2023/07/21 04:01:26;;;;;;;9.38;4.93;;;14.10;99.90;;;13.55;100.00;101129.34;3995967;29;20050;-73
2023/07/21 04:03:27;;;;;;;10.75;5.07;;;14.10;99.90;;;13.65;100.00;101142.44;3979526;29;20031;-73
2023/07/21 04:05:28;;;;;;;12.05;5.43;;;14.20;99.90;;;13.65;100.00;101142.44;3996223;29;20084;-73
2023/07/21 04:07:29;;;;;;;6.90;5.18;;;14.20;99.90;;;13.72;100.00;101144.25;3995982;29;20026;-73
2023/07/21 04:09:31;;;;;;;7.57;5.03;;;14.30;99.90;;;13.75;100.00;101146.56;3971732;29;20039;-73
2023/07/21 04:11:32;;;;;;;8.93;5.10;;;14.30;99.90;;;13.83;100.00;101143.91;3992552;29;20128;-73
2023/07/21 04:13:33;;;;;;;6.88;4.40;;;14.40;99.90;;;13.84;100.00;101142.09;3967157;29;20023;-73
2023/07/21 04:15:34;;;;;;;7.38;4.63;;;14.40;99.90;;;13.83;100.00;101137.75;3989767;29;20085;-73
2023/07/21 04:17:34;;;;;;;7.72;5.25;;;14.40;99.90;;;13.90;100.00;101141.41;3990674;29;20039;-73
2023/07/21 04:19:35;;;;;;;8.82;4.55;;;14.40;99.90;;;13.96;100.00;101147.88;3987717;29;20031;-73
2023/07/21 04:21:36;;;;;;;9.05;5.60;;;14.50;99.90;;;13.94;100.00;101145.41;3992348;29;20552;-73
2023/07/21 04:23:37;;;;;;;6.22;4.50;;;14.50;99.90;;;13.98;100.00;101143.25;3970798;29;20585;-73
2023/07/21 04:25:38;;;;;;;7.10;5.15;;;14.50;99.90;;;13.95;100.00;101144.38;3993621;29;20503;-73
2023/07/21 04:27:39;;;;;;;7.05;4.97;;;14.40;99.90;;;13.84;100.00;101134.13;3995808;29;20060;-73
2023/07/21 04:29:40;;;;;;;7.43;4.72;;;14.40;99.90;;;13.79;100.00;101145.25;3991749;29;20484;-73
2023/07/21 04:31:41;;;;;;;8.82;5.10;;;14.30;99.90;;;13.68;100.00;101136.78;3994070;29;20030;-73
2023/07/21 04:33:41;;;;;;;7.45;4.55;;;14.30;99.90;;;13.57;100.00;101134.47;3973240;29;20046;-73
2023/07/21 04:35:46;;;;;;;7.45;5.05;;;14.20;99.90;;;13.57;100.00;101145.06;3995605;29;20398;-73
2023/07/21 04:37:47;;;;;;;8.20;5.38;;;14.10;99.90;;;13.51;100.00;101145.72;3995753;29;20118;-73
2023/07/21 04:39:48;;;;;;;7.75;4.70;;;14.10;99.90;;;13.45;100.00;101157.81;3995694;29;20453;-73
2023/07/21 04:41:48;;;;;;;6.18;4.50;;;14.00;99.90;;;13.44;100.00;101152.69;3995506;29;20034;-73
2023/07/21 04:43:49;;;;;;;7.32;4.97;;;14.00;99.90;;;13.35;100.00;101143.09;3995582;29;20033;-73
2023/07/21 04:45:50;;;;;;;7.72;5.65;;;13.90;99.90;;;13.35;100.00;101148.38;3995704;29;20506;-73
2023/07/21 04:47:53;;;;;;;8.05;5.30;;;13.90;99.90;;;13.32;100.00;101146.06;3995681;29;20033;-73
2023/07/21 04:49:54;;;;;;;11.40;5.65;;;13.80;99.90;;;13.27;100.00;101149.19;3995578;29;20407;-73
2023/07/21 04:51:54;;;;;;;7.57;5.95;;;13.80;99.90;;;13.24;100.00;101146.88;3990286;29;20035;-73
2023/07/21 04:53:55;;;;;;;9.18;5.80;;;13.80;99.90;;;13.23;100.00;101146.03;3995120;29;20514;-73
2023/07/21 04:55:57;;;;;;;6.43;4.90;;;13.80;99.90;;;13.19;100.00;101143.88;3995202;29;20026;-73
2023/07/21 04:57:58;;;;;;;7.63;5.10;;;13.70;99.90;;;13.16;100.00;101147.69;3995308;29;20030;-73
2023/07/21 04:59:59;;;;;;;7.82;6.28;;;13.70;99.90;;;13.09;100.00;101136.09;3988139;29;20015;-73
2023/07/21 05:02:00;;;;;;;6.50;5.57;;;13.70;99.90;;;13.15;100.00;101148.69;3993219;29;20046;-73
2023/07/21 05:04:01;;;;;;;9.40;5.65;;;13.70;99.90;;;13.17;100.00;101154.63;3986811;29;20038;-73
2023/07/21 05:06:02;;;;;;;10.85;6.03;;;13.70;99.90;;;13.13;100.00;101153.31;3988053;29;20039;-73
2023/07/21 05:08:03;;;;;;;12.57;6.32;;;13.70;99.90;;;13.13;100.00;101152.47;3986473;29;20030;-73
2023/07/21 05:10:05;;;;;;;10.35;6.30;;;13.70;99.90;;;13.16;100.00;101160.09;3974258;29;20035;-73
2023/07/21 05:12:07;;;;;;;9.05;6.13;;;13.70;99.90;;;13.14;100.00;101159.44;3987731;29;20034;-73
2023/07/21 05:14:08;;;;;;;7.97;6.18;;;13.70;99.90;;;13.12;100.00;101151.66;3974237;29;20035;-73
2023/07/21 05:16:09;;;;;;;9.57;6.18;;;13.70;99.90;;;13.10;100.00;101158.94;3987794;29;20030;-73
2023/07/21 05:18:10;;;;;;;10.10;7.15;;;13.70;99.90;;;13.15;100.00;101163.72;3991155;29;20023;-73
2023/07/21 05:20:11;;;;;;;10.70;6.75;;;13.70;99.90;;;13.17;100.00;101157.28;3985906;29;20027;-73
2023/07/21 05:22:13;;;;;;;7.60;6.18;;;13.70;99.90;;;13.19;100.00;101165.09;3986293;29;20066;-73
2023/07/21 05:24:14;;;;;;;12.68;7.53;;;13.70;99.90;;;13.18;100.00;101161.59;3974774;29;20061;-72
2023/07/21 05:26:16;;;;;;;9.65;7.47;;;13.70;99.90;;;13.22;100.00;101170.06;3989280;29;20076;-73
2023/07/21 05:28:16;;;;;;;10.70;7.88;;;13.70;99.90;;;13.18;100.00;101166.91;3987367;29;20117;-73
2023/07/21 05:30:17;;;;;;;10.80;7.40;;;13.70;99.90;;;13.21;100.00;101169.22;3986649;29;20406;-73
2023/07/21 05:32:18;;;;;;;14.15;8.43;;;13.70;99.90;;;13.24;100.00;101174.19;3971774;29;20039;-73
2023/07/21 05:34:21;;;;;;;12.15;8.57;;;13.80;99.90;;;13.24;100.00;101163.59;3968903;29;20046;-73
2023/07/21 05:36:22;;;;;;;9.95;7.65;;;13.80;99.90;;;13.27;100.00;101171.22;3988670;29;20022;-73
2023/07/21 05:38:22;;;;;;;12.07;7.80;;;13.80;99.90;;;13.32;100.00;101172.56;3990802;29;20511;-73
2023/07/21 05:40:23;;;;;;;14.93;7.97;;;13.80;99.90;;;13.19;100.00;101149.19;3987563;29;20080;-73
2023/07/21 05:42:24;;;;;;;12.98;8.05;;;13.80;99.90;;;13.24;100.00;101160.94;3989051;29;20411;-73
2023/07/21 05:44:26;;;;;;;15.85;9.48;;;13.80;99.90;;;13.32;100.00;101169.91;3966660;30;20027;-73
2023/07/21 05:46:27;;;;;;;11.32;8.25;;;13.80;99.90;;;13.32;100.00;101168.06;3991405;29;20058;-73
2023/07/21 05:48:28;;;;;;;12.15;8.60;;;13.90;99.90;;;13.38;100.00;101179.84;3976340;29;20050;-73
2023/07/21 05:50:29;;;;;;;10.50;7.00;;;13.90;99.90;;;13.43;100.00;101177.53;3976463;29;20042;-73
2023/07/21 05:52:30;;;;;;;11.70;8.20;;;13.90;99.90;;;13.45;100.00;101180.84;3991467;29;20027;-73
2023/07/21 05:54:31;;;;;;;11.15;8.40;;;13.90;99.90;;;13.49;100.00;101185.66;3992739;29;20411;-73
2023/07/21 05:56:31;;;;;;;11.00;6.57;;;14.00;99.90;;;13.49;100.00;101176.88;3990589;29;20019;-73
2023/07/21 05:58:35;;;;;;;8.48;7.07;;;14.00;99.90;;;13.55;100.00;101181.53;3993542;29;20050;-73
2023/07/21 06:00:36;;;;;;;13.10;7.13;;;14.00;99.90;;;13.61;100.00;101186.16;3975498;29;20545;-73
2023/07/21 06:02:37;;;;;;;11.30;7.97;;;14.00;99.90;;;13.63;100.00;101189.47;3977510;29;20369;-73
2023/07/21 06:04:38;;;;;;;12.65;7.43;;;14.10;99.90;;;13.70;100.00;101190.50;3976537;29;20138;-73
2023/07/21 06:06:39;;;;;;;9.60;7.10;;;14.10;99.90;;;13.72;100.00;101189.31;3990721;29;20038;-73
2023/07/21 06:08:40;;;;;;;10.07;6.80;;;14.20;99.90;;;13.79;100.00;101195.63;3967914;29;20503;-73
2023/07/21 06:10:40;;;;;;;14.18;7.68;;;14.20;99.90;;;13.82;100.00;101197.94;3990962;29;20548;-73
2023/07/21 06:12:41;;;;;;;11.30;6.75;;;14.30;99.90;;;13.82;100.00;101199.78;3987472;29;20035;-73
2023/07/21 06:14:42;;;;;;;9.82;7.22;;;14.30;99.90;;;13.87;100.00;101197.44;3987128;29;20030;-73
2023/07/21 06:16:43;;;;;;;11.18;7.88;;;14.30;99.90;;;13.87;100.00;101205.41;3992722;29;20023;-73
2023/07/21 06:18:45;;;;;;;9.93;7.15;;;14.40;99.90;;;13.93;100.00;101207.38;3993686;29;20026;-73
2023/07/21 06:20:47;;;;;;;12.07;7.80;;;14.40;99.90;;;13.99;100.00;101212.03;3990259;29;20532;-73
2023/07/21 06:22:48;;;;;;;13.60;7.85;;;14.40;99.90;;;14.05;100.00;101211.34;3990273;29;20047;-73
2023/07/21 06:24:49;;;;;;;13.15;7.68;;;14.50;99.90;;;14.05;100.00;101206.06;3987296;29;20027;-73
2023/07/21 06:26:50;;;;;;;11.77;7.28;;;14.50;99.90;;;14.12;100.00;101207.06;3977113;29;20030;-73
2023/07/21 06:28:51;;;;;;;10.73;7.40;;;14.60;99.90;;;14.10;100.00;101206.38;3991140;29;20461;-73
2023/07/21 06:30:52;;;;;;;13.13;7.20;;;14.60;99.90;;;14.14;100.00;101205.06;3975075;29;20031;-73
2023/07/21 06:32:53;;;;;;;9.10;7.03;;;14.60;99.90;;;14.20;100.00;101201.72;3995833;29;20035;-72
2023/07/21 06:34:53;;;;;;;15.30;7.97;;;14.70;99.90;;;14.32;100.00;101213.69;3976145;29;20027;-73
2023/07/21 06:36:54;;;;;;;9.45;6.50;;;14.70;99.90;;;14.66;100.00;101209.94;3990058;29;20057;-73
2023/07/21 06:38:56;;;;;;;9.65;6.07;;;14.80;99.90;;;14.99;100.00;101214.16;3993050;29;20487;-73
2023/07/21 06:40:57;;;;;;;9.82;6.10;;;15.00;99.90;;;15.07;100.00;101211.44;3992126;29;20018;-73
2023/07/21 06:42:58;;;;;;;10.60;6.95;;;15.10;99.90;;;15.11;100.00;101226.03;3976776;29;20030;-73
2023/07/21 06:44:59;;;;;;;8.70;6.13;;;15.20;99.90;;;15.09;100.00;101219.22;3990390;29;20062;-72
2023/07/21 06:47:00;;;;;;;8.00;6.47;;;15.30;99.90;;;14.97;100.00;101213.47;3975650;29;20027;-73
2023/07/21 06:49:02;;;;;;;9.98;5.40;;;15.30;99.90;;;14.97;100.00;101229.41;3992766;29;20042;-73
2023/07/21 06:51:02;;;;;;;11.90;6.95;;;15.30;99.90;;;14.81;100.00;101229.50;3987966;29;20053;-73
2023/07/21 06:53:05;;;;;;;12.20;6.90;;;15.30;99.90;;;14.81;100.00;101218.88;3959948;30;20047;-73
2023/07/21 06:55:06;;;;;;;9.60;6.63;;;15.30;99.90;;;14.87;100.00;101223.50;3974311;29;20027;-73
2023/07/21 06:57:10;;;;;;;11.07;6.22;;;15.30;99.90;;;14.94;100.00;101224.44;3990390;29;20376;-73
2023/07/21 06:59:11;;;;;;;8.73;6.18;;;15.40;99.90;;;14.97;100.00;101226.75;3987497;29;20027;-73
2023/07/21 07:01:12;;;;;;;11.77;7.95;;;15.40;99.90;;;15.00;100.00;101228.22;3989950;29;20041;-73
2023/07/21 07:03:12;;;;;;;11.07;7.25;;;15.40;99.90;;;15.06;100.00;101223.06;3992655;29;20027;-73
2023/07/21 07:05:14;;;;;;;14.38;6.95;;;15.50;99.90;;;15.08;100.00;101226.38;3992379;29;20430;-73
2023/07/21 07:07:15;;;;;;;10.80;7.18;;;15.50;99.90;;;15.18;100.00;101229.66;3989623;29;20035;-73
2023/07/21 07:09:16;;;;;;;15.38;7.40;;;15.50;99.90;;;15.14;100.00;101225.66;3972861;29;20039;-73
2023/07/21 07:11:17;;;;;;;11.95;7.38;;;15.60;99.90;;;15.21;100.00;101229.28;3993243;29;20046;-73
2023/07/21 07:13:18;;;;;;;9.80;6.43;;;15.60;99.90;;;15.21;100.00;101229.28;3992555;29;20030;-73
2023/07/21 07:15:19;;;;;;;11.13;6.80;;;15.70;99.90;;;15.26;100.00;101226.94;3992257;29;20022;-74
2023/07/21 07:17:20;;;;;;;9.10;5.82;;;15.70;99.90;;;15.32;100.00;101234.22;3973470;29;20477;-73
2023/07/21 07:19:21;;;;;;;8.38;6.00;;;15.80;99.90;;;15.31;100.00;101231.75;3973529;29;20104;-73
2023/07/21 07:21:22;;;;;;;7.70;5.70;;;15.80;99.90;;;15.35;100.00;101235.72;3992447;29;20030;-73
2023/07/21 07:23:23;;;;;;;9.77;6.13;;;15.80;99.90;;;15.37;100.00;101237.19;3986435;29;20051;-73
2023/07/21 07:25:25;;;;;;;9.35;6.03;;;15.90;99.90;;;15.42;100.00;101234.81;3976803;29;20037;-73
2023/07/21 07:27:26;;;;;;;9.40;6.60;;;15.90;99.90;;;15.54;100.00;101242.44;3987359;29;20034;-73
2023/07/21 07:29:27;;;;;;;9.80;6.95;;;16.00;99.90;;;15.57;100.00;101234.09;3990836;29;20038;-74
2023/07/21 07:31:28;;;;;;;10.32;6.15;;;16.00;99.90;;;15.68;100.00;101233.72;3964936;30;20043;-74
2023/07/21 07:33:29;;;;;;;8.68;5.78;;;16.10;99.90;;;15.69;100.00;101235.34;3990988;29;20041;-74
2023/07/21 07:35:29;;;;;;;9.52;5.63;;;16.10;99.90;;;15.74;100.00;101235.66;3973416;29;20507;-74
2023/07/21 07:37:30;;;;;;;7.97;5.60;;;16.20;99.90;;;15.74;100.00;101241.78;3989704;29;20022;-74
2023/07/21 07:39:31;;;;;;;7.43;5.75;;;16.20;99.90;;;15.83;100.00;101243.38;3992354;29;20030;-74
2023/07/21 07:41:32;;;;;;;8.68;6.15;;;16.30;99.90;;;15.93;100.00;101243.97;3990374;29;20023;-74
2023/07/21 07:43:33;;;;;;;10.30;5.30;;;16.40;99.90;;;15.92;100.00;101241.47;3989514;29;20034;-74
2023/07/21 07:45:37;;;;;;;7.43;5.90;;;16.40;99.90;;;16.03;100.00;101241.91;3991188;29;20045;-74
2023/07/21 07:47:37;;;;;;;7.78;5.40;;;16.50;99.90;;;16.12;100.00;101237.34;3992094;29;20384;-74
2023/07/21 07:49:38;;;;;;;7.25;5.03;;;16.50;99.90;;;16.18;100.00;101243.78;3990145;29;20038;-74
2023/07/21 07:51:39;;;;;;;9.98;5.32;;;16.60;99.90;;;16.29;100.00;101235.34;3973873;29;20038;-74
2023/07/21 07:53:40;;;;;;;8.75;4.75;;;16.70;99.90;;;16.36;100.00;101236.28;3989669;29;20027;-74
2023/07/21 07:55:42;;;;;;;7.65;5.13;;;16.80;99.90;;;16.43;100.00;101245.19;3979397;29;20038;-74
2023/07/21 07:57:43;;;;;;;9.82;5.68;;;16.90;99.90;;;16.48;100.00;101237.50;3960604;29;20023;-74
2023/07/21 07:59:44;;;;;;;7.82;5.30;;;16.90;99.90;;;16.55;100.00;101238.44;3988734;29;20511;-74
2023/07/21 08:01:45;;;;;;;8.63;5.95;;;17.00;99.90;;;16.63;100.00;101237.53;3986006;29;20026;-74
2023/07/21 08:03:46;;;;;;;9.23;5.22;;;17.10;99.90;;;16.70;100.00;101241.94;3975753;29;20077;-74
2023/07/21 08:05:48;;;;;;;8.80;5.68;;;17.20;99.90;;;16.51;100.00;101248.63;3975762;29;20046;-74
2023/07/21 08:07:48;;;;;;;9.93;5.18;;;17.10;99.90;;;16.67;100.00;101244.13;3986799;29;20026;-74
2023/07/21 08:09:49;;;;;;;8.02;5.22;;;17.20;99.90;;;16.77;100.00;101248.19;3990627;29;20027;-74
2023/07/21 08:11:50;;;;;;;8.70;5.43;;;17.20;99.90;;;16.89;100.00;101241.41;3974597;29;20035;-74
2023/07/21 08:13:51;;;;;;;10.32;6.43;;;17.30;99.90;;;16.92;100.00;101240.19;3986692;29;20059;-74
2023/07/21 08:15:52;;;;;;;11.82;5.97;;;17.40;99.90;;;17.00;100.00;101240.91;3988097;29;20045;-74
2023/07/21 08:17:53;;;;;;;8.40;5.47;;;17.50;99.90;;;17.06;100.00;101234.84;3984694;29;20491;-74
2023/07/21 08:19:54;;;;;;;9.13;5.18;;;17.50;99.90;;;17.16;100.00;101237.22;3975575;29;20606;-74